Time;durP1;ratioP1;P1;durP2;ratioP2;P2;SDS_P1;SDS_P2;PMS_P1;PMS_P2;Temp;Humidity;BMP_temperature;BMP_pressure;BME280_temperature;BME280_humidity;BME280_pressure;Samples;Min_cycle;Max_cycle;Signal;HPM_P1;HPM_P2
2021/05/21 00:02:05;;;;;;;0.40;0.40;;;9.40;99.90;;;;;;5013239;28;20022;-73
2021/05/21 00:04:31;;;;;;;0.38;0.38;;;9.40;99.90;;;;;;5013335;28;20473;-73
2021/05/21 00:06:57;;;;;;;0.40;0.40;;;9.30;99.90;;;;;;5013538;28;20024;-73
2021/05/21 00:09:22;;;;;;;0.40;0.40;;;9.30;99.90;;;;;;5013558;28;20112;-73
2021/05/21 00:11:48;;;;;;;0.40;0.40;;;9.20;99.90;;;;;;5013364;28;20030;-73
2021/05/21 00:14:14;;;;;;;0.30;0.30;;;9.20;99.90;;;;;;5013205;28;20042;-78
2021/05/21 00:16:40;;;;;;;0.43;0.40;;;9.20;99.90;;;;;;5013272;28;20022;-74
2021/05/21 00:19:06;;;;;;;0.40;0.35;;;9.10;99.90;;;;;;5013345;28;20029;-74
2021/05/21 00:21:32;;;;;;;2.28;0.40;;;9.10;99.90;;;;;;5013416;28;20369;-79
2021/05/21 00:23:57;;;;;;;0.55;0.50;;;9.10;99.90;;;;;;5013374;28;20033;-77
2021/05/21 00:26:23;;;;;;;0.35;0.35;;;9.10;99.90;;;;;;5013291;28;20025;-77
2021/05/21 00:28:49;;;;;;;0.30;0.30;;;9.00;99.90;;;;;;5012909;28;20469;-77
2021/05/21 00:31:15;;;;;;;0.30;0.30;;;9.00;99.90;;;;;;5012650;28;20065;-77
2021/05/21 00:33:40;;;;;;;0.35;0.35;;;9.00;99.90;;;;;;5012984;28;20043;-77
2021/05/21 00:36:07;;;;;;;0.43;0.30;;;8.90;99.90;;;;;;5012433;28;20513;-77
2021/05/21 00:38:32;;;;;;;0.80;0.50;;;8.90;99.90;;;;;;5012617;28;20033;-77
2021/05/21 00:41:02;;;;;;;0.38;0.38;;;8.80;99.90;;;;;;5012532;28;20025;-77
2021/05/21 00:43:28;;;;;;;0.40;0.40;;;8.80;99.90;;;;;;5012774;28;20053;-77
2021/05/21 00:45:54;;;;;;;2.28;0.47;;;8.70;99.90;;;;;;5012778;28;20069;-77
2021/05/21 00:48:20;;;;;;;1.27;0.40;;;8.70;99.90;;;;;;5012899;28;20113;-77
2021/05/21 00:50:49;;;;;;;0.50;0.50;;;8.60;99.90;;;;;;5012384;28;20030;-77
2021/05/21 00:53:16;;;;;;;0.40;0.40;;;8.60;99.90;;;;;;5012385;28;20104;-77
2021/05/21 00:55:43;;;;;;;1.20;0.50;;;8.60;99.90;;;;;;5012291;28;20481;-77
2021/05/21 00:58:09;;;;;;;0.40;0.40;;;8.60;99.90;;;;;;5012285;28;20026;-77
2021/05/21 01:00:35;;;;;;;0.40;0.40;;;8.50;99.90;;;;;;5012455;28;20084;-73
2021/05/21 01:03:00;;;;;;;0.40;0.40;;;8.50;99.90;;;;;;5012038;28;20487;-73
2021/05/21 01:05:26;;;;;;;0.68;0.40;;;8.40;99.90;;;;;;5012625;28;20049;-73
2021/05/21 01:07:52;;;;;;;0.40;0.38;;;8.40;99.90;;;;;;5012345;28;20018;-74
2021/05/21 01:10:18;;;;;;;0.40;0.40;;;8.40;99.90;;;;;;5012198;28;20478;-73
2021/05/21 01:12:44;;;;;;;0.82;0.60;;;8.30;99.90;;;;;;5012424;28;20025;-74
2021/05/21 01:15:11;;;;;;;0.40;0.40;;;8.30;99.90;;;;;;5012157;28;20386;-73
2021/05/21 01:17:37;;;;;;;0.50;0.50;;;8.30;99.90;;;;;;5012479;28;20458;-73
2021/05/21 01:20:07;;;;;;;0.50;0.50;;;8.20;99.90;;;;;;5011869;28;20113;-72
2021/05/21 01:22:33;;;;;;;0.70;0.50;;;8.10;99.90;;;;;;5012256;28;20045;-72
2021/05/21 01:24:59;;;;;;;0.30;0.30;;;8.10;99.90;;;;;;5011857;28;20028;-72
2021/05/21 01:27:25;;;;;;;0.85;0.40;;;8.00;99.90;;;;;;5012088;28;20029;-72
2021/05/21 01:29:51;;;;;;;0.63;0.30;;;8.00;99.90;;;;;;5012220;28;20030;-73
2021/05/21 01:32:17;;;;;;;0.45;0.45;;;8.00;99.90;;;;;;5011696;28;20499;-73
2021/05/21 01:34:43;;;;;;;0.40;0.40;;;8.00;99.90;;;;;;5011931;28;20041;-73
2021/05/21 01:37:27;;;;;;;0.55;0.35;;;8.00;99.90;;;;;;5011178;28;20034;-73
2021/05/21 01:39:52;;;;;;;0.50;0.50;;;7.90;99.90;;;;;;5012187;28;20033;-73
2021/05/21 01:42:19;;;;;;;0.30;0.30;;;7.90;99.90;;;;;;5011753;28;20022;-72
2021/05/21 01:44:45;;;;;;;0.40;0.40;;;7.90;99.90;;;;;;5011906;28;20025;-72
2021/05/21 01:47:13;;;;;;;0.40;0.40;;;7.80;99.90;;;;;;5011695;28;20030;-72
2021/05/21 01:49:40;;;;;;;0.40;0.40;;;7.90;99.90;;;;;;5012089;28;20470;-72
2021/05/21 01:52:06;;;;;;;0.90;0.45;;;7.90;99.90;;;;;;5011790;28;20113;-72
2021/05/21 01:54:32;;;;;;;0.32;0.32;;;7.90;99.90;;;;;;5011838;28;20113;-72
2021/05/21 01:57:01;;;;;;;0.68;0.50;;;7.90;99.90;;;;;;5011374;28;20040;-72
2021/05/21 01:59:27;;;;;;;0.40;0.40;;;7.90;99.90;;;;;;5011782;28;20491;-72
2021/05/21 02:01:53;;;;;;;0.40;0.40;;;7.90;99.90;;;;;;5011735;28;20100;-72
2021/05/21 02:04:32;;;;;;;2.28;0.40;;;7.90;99.90;;;;;;5015571;28;20396;-72
2021/05/21 02:06:58;;;;;;;0.35;0.35;;;7.90;99.90;;;;;;5015628;28;20358;-72
2021/05/21 02:09:24;;;;;;;0.43;0.43;;;7.90;99.90;;;;;;5015359;28;20022;-76
2021/05/21 02:11:50;;;;;;;0.40;0.40;;;7.90;99.90;;;;;;5015444;28;20029;-76
2021/05/21 02:14:16;;;;;;;0.50;0.50;;;7.90;99.90;;;;;;5015275;28;20080;-76
2021/05/21 02:16:42;;;;;;;0.47;0.47;;;7.80;99.90;;;;;;5015638;28;20022;-77
2021/05/21 02:19:08;;;;;;;0.40;0.40;;;7.80;99.90;;;;;;5015711;28;20079;-75
2021/05/21 02:21:35;;;;;;;1.60;0.43;;;7.80;99.90;;;;;;5015271;28;20022;-79
2021/05/21 02:24:03;;;;;;;0.57;0.57;;;7.80;99.90;;;;;;5015268;28;20026;-78
2021/05/21 02:26:30;;;;;;;0.50;0.50;;;7.80;99.90;;;;;;5015238;28;20363;-77
2021/05/21 02:28:56;;;;;;;0.40;0.40;;;7.90;99.90;;;;;;5015169;28;20018;-77
2021/05/21 02:31:22;;;;;;;0.50;0.50;;;7.90;99.90;;;;;;5015228;28;20037;-76
2021/05/21 02:33:47;;;;;;;0.40;0.40;;;7.90;99.90;;;;;;5014825;28;20038;-74
2021/05/21 02:36:13;;;;;;;0.40;0.40;;;7.90;99.90;;;;;;5014675;28;20045;-74
2021/05/21 02:38:39;;;;;;;0.40;0.40;;;7.90;99.90;;;;;;5014942;28;20034;-74
2021/05/21 02:41:05;;;;;;;0.40;0.40;;;8.00;99.90;;;;;;5015253;28;20022;-74
2021/05/21 02:43:30;;;;;;;0.40;0.40;;;8.00;99.90;;;;;;5014786;28;20025;-74
2021/05/21 02:45:56;;;;;;;0.40;0.40;;;8.00;99.90;;;;;;5015286;28;20088;-74
2021/05/21 02:48:22;;;;;;;0.40;0.40;;;8.10;99.90;;;;;;4997210;28;20474;-72
2021/05/21 02:50:48;;;;;;;0.50;0.50;;;8.10;99.90;;;;;;5015113;28;20040;-72
2021/05/21 02:53:13;;;;;;;0.50;0.50;;;8.10;99.90;;;;;;5014729;28;20080;-72
2021/05/21 02:55:39;;;;;;;0.40;0.40;;;8.10;99.90;;;;;;5014820;28;20485;-72
2021/05/21 02:58:05;;;;;;;0.50;0.50;;;8.20;99.90;;;;;;5014780;28;20029;-72
2021/05/21 03:00:31;;;;;;;0.60;0.60;;;8.20;99.90;;;;;;5014525;28;20393;-76
2021/05/21 03:02:56;;;;;;;0.57;0.57;;;8.20;99.90;;;;;;5014556;28;20034;-75
2021/05/21 03:05:22;;;;;;;0.68;0.30;;;8.20;99.90;;;;;;5014285;28;20029;-74
2021/05/21 03:07:56;;;;;;;0.63;0.47;;;8.30;99.90;;;;;;5014688;28;20092;-74
2021/05/21 03:10:26;;;;;;;0.93;0.43;;;8.30;99.90;;;;;;5014431;28;20030;-76
2021/05/21 03:12:52;;;;;;;0.85;0.50;;;8.30;99.90;;;;;;5014374;28;20512;-77
2021/05/21 03:15:17;;;;;;;0.60;0.60;;;8.30;99.90;;;;;;5013510;28;20081;-77
2021/05/21 03:17:44;;;;;;;0.50;0.50;;;8.40;99.90;;;;;;5014140;28;20100;-74
2021/05/21 03:20:11;;;;;;;2.20;0.50;;;8.40;99.90;;;;;;5014084;28;20026;-74
2021/05/21 03:22:36;;;;;;;0.50;0.40;;;8.50;99.90;;;;;;5014241;28;20056;-74
2021/05/21 03:25:04;;;;;;;0.45;0.45;;;8.50;99.90;;;;;;5014004;28;20053;-74
2021/05/21 03:27:33;;;;;;;0.40;0.40;;;8.50;99.90;;;;;;5014250;28;20088;-74
2021/05/21 03:30:00;;;;;;;0.50;0.50;;;8.50;99.90;;;;;;5014067;28;20087;-72
2021/05/21 03:32:26;;;;;;;0.50;0.50;;;8.60;99.90;;;;;;5014102;28;20104;-75
2021/05/21 03:34:52;;;;;;;0.55;0.55;;;8.60;99.90;;;;;;5013952;28;20034;-74
2021/05/21 03:37:18;;;;;;;0.45;0.45;;;8.70;99.90;;;;;;5013527;28;20555;-73
2021/05/21 03:39:43;;;;;;;0.50;0.50;;;8.80;99.90;;;;;;5014249;28;20026;-74
2021/05/21 03:42:09;;;;;;;0.50;0.50;;;8.90;99.90;;;;;;5013655;28;20496;-73
2021/05/21 03:44:35;;;;;;;0.40;0.40;;;9.00;99.90;;;;;;5013889;28;20068;-74
2021/05/21 03:47:02;;;;;;;0.47;0.40;;;9.20;99.90;;;;;;5013617;28;20030;-73
2021/05/21 03:49:31;;;;;;;0.30;0.30;;;9.60;99.90;;;;;;5013513;28;20030;-73
2021/05/21 03:52:01;;;;;;;11.60;0.90;;;10.00;99.20;;;;;;5013601;28;20417;-73
2021/05/21 03:54:27;;;;;;;0.40;0.40;;;10.30;97.00;;;;;;5013422;28;20042;-73
2021/05/21 03:56:52;;;;;;;0.90;0.38;;;10.40;96.20;;;;;;5013626;28;20068;-73
2021/05/21 03:59:19;;;;;;;0.30;0.30;;;10.40;94.10;;;;;;5013686;28;20393;-73
2021/05/21 04:01:49;;;;;;;0.30;0.30;;;10.30;95.00;;;;;;4995850;28;20430;-73
2021/05/21 04:04:15;;;;;;;0.40;0.40;;;10.20;94.90;;;;;;5013254;28;20061;-73
2021/05/21 04:06:41;;;;;;;2.67;0.57;;;10.20;94.90;;;;;;5013647;28;20080;-73
2021/05/21 04:09:07;;;;;;;1.00;0.40;;;10.00;95.00;;;;;;5013150;28;20504;-73
2021/05/21 04:11:37;;;;;;;0.50;0.50;;;9.80;95.60;;;;;;5013696;28;20502;-73
2021/05/21 04:14:05;;;;;;;0.40;0.40;;;9.70;95.30;;;;;;5013519;28;20133;-73
2021/05/21 04:16:31;;;;;;;0.50;0.30;;;9.70;96.20;;;;;;5013244;28;20033;-74
2021/05/21 04:18:57;;;;;;;0.40;0.40;;;9.70;96.50;;;;;;5013006;28;20553;-74
2021/05/21 04:21:23;;;;;;;0.73;0.60;;;9.60;96.20;;;;;;5013315;28;20030;-72
2021/05/21 04:23:49;;;;;;;2.15;0.40;;;9.70;96.30;;;;;;5012812;28;20033;-72
2021/05/21 04:26:16;;;;;;;0.43;0.43;;;9.70;96.40;;;;;;4994345;28;20029;-73
2021/05/21 04:28:42;;;;;;;0.40;0.40;;;9.80;96.30;;;;;;5012842;28;20022;-73
2021/05/21 04:31:08;;;;;;;0.30;0.30;;;9.70;95.20;;;;;;5013229;28;20382;-75
2021/05/21 04:33:35;;;;;;;1.27;0.40;;;9.70;95.80;;;;;;5012838;28;20030;-76
2021/05/21 04:36:00;;;;;;;0.50;0.50;;;9.70;96.00;;;;;;5012589;28;20041;-73
2021/05/21 04:38:27;;;;;;;0.40;0.40;;;9.70;96.30;;;;;;5012473;28;20034;-73
2021/05/21 04:40:53;;;;;;;5.60;0.60;;;10.70;99.90;;;;;;5012344;28;20069;-70
2021/05/21 04:43:26;;;;;;;1.40;0.90;;;11.80;99.90;;;;;;5012188;28;20026;-71
2021/05/21 04:45:53;;;;;;;3.35;0.60;;;12.50;99.90;;;;;;5011035;28;20034;-68
2021/05/21 04:48:19;;;;;;;0.57;0.40;;;13.20;99.90;;;;;;5011991;28;20028;-71
2021/05/21 04:50:46;;;;;;;4.40;0.60;;;13.30;87.30;;;;;;5012438;28;20478;-72
2021/05/21 04:53:13;;;;;;;0.20;0.20;;;12.50;82.30;;;;;;5011929;28;20454;-71
2021/05/21 04:55:40;;;;;;;0.65;0.40;;;11.80;83.40;;;;;;5011677;28;20040;-72
2021/05/21 04:58:06;;;;;;;1.15;0.40;;;11.30;89.60;;;;;;5010746;28;20018;-71
2021/05/21 05:00:32;;;;;;;0.30;0.30;;;11.00;90.40;;;;;;5009681;28;20108;-73
2021/05/21 05:03:07;;;;;;;0.47;0.30;;;10.80;90.70;;;;;;5010203;28;20022;-81
2021/05/21 05:05:33;;;;;;;0.25;0.25;;;10.60;90.90;;;;;;5011112;28;20502;-81
2021/05/21 05:07:59;;;;;;;0.43;0.30;;;10.50;91.90;;;;;;5009053;28;20072;-83
2021/05/21 05:10:25;;;;;;;0.30;0.30;;;10.50;91.50;;;;;;5008712;28;20026;-82
2021/05/21 05:12:52;;;;;;;0.40;0.40;;;10.50;91.70;;;;;;5009970;28;20026;-83
2021/05/21 05:15:19;;;;;;;0.25;0.25;;;10.40;91.70;;;;;;5008132;28;20551;-81
2021/05/21 05:17:48;;;;;;;0.75;0.30;;;10.40;90.60;;;;;;5011642;28;20026;-86
2021/05/21 05:20:15;;;;;;;3.13;0.50;;;10.30;90.80;;;;;;5012372;28;20101;-83
2021/05/21 05:22:41;;;;;;;0.90;0.30;;;10.20;91.10;;;;;;5012381;28;20030;-86
2021/05/21 05:25:08;;;;;;;1.67;0.40;;;10.10;91.20;;;;;;5013099;28;20049;-86
2021/05/21 05:27:35;;;;;;;0.50;0.30;;;10.10;92.10;;;;;;5010543;28;20022;-92
2021/05/21 05:30:01;;;;;;;0.68;0.32;;;10.10;90.80;;;;;;5014416;28;20060;-90
2021/05/21 05:32:26;;;;;;;0.30;0.30;;;10.10;92.00;;;;;;5012423;28;20030;-72
2021/05/21 05:34:52;;;;;;;0.40;0.40;;;10.10;91.30;;;;;;5011927;28;20038;-81
2021/05/21 05:37:18;;;;;;;0.30;0.30;;;10.10;91.50;;;;;;4990536;28;20126;-83
2021/05/21 05:39:44;;;;;;;0.30;0.30;;;10.00;91.60;;;;;;4992492;28;20065;-82
2021/05/21 05:42:09;;;;;;;0.30;0.30;;;10.10;91.60;;;;;;4991007;28;20022;-82
2021/05/21 05:44:35;;;;;;;0.40;0.30;;;10.00;91.40;;;;;;4992126;28;20108;-83
2021/05/21 05:47:01;;;;;;;0.40;0.40;;;10.00;91.50;;;;;;4992137;28;20018;-82
2021/05/21 05:49:27;;;;;;;9.68;1.20;;;10.00;91.80;;;;;;4990585;28;20073;-82
2021/05/21 05:51:52;;;;;;;0.30;0.30;;;10.00;92.10;;;;;;4992034;28;20022;-82
2021/05/21 05:54:18;;;;;;;0.40;0.40;;;10.00;92.00;;;;;;4991829;28;20088;-84
2021/05/21 05:56:44;;;;;;;0.60;0.50;;;10.10;92.00;;;;;;4991975;28;20053;-82
2021/05/21 05:59:09;;;;;;;5.90;0.60;;;10.00;92.10;;;;;;4992388;28;20121;-81
2021/05/21 06:01:35;;;;;;;0.40;0.40;;;10.10;94.40;;;;;;4992984;28;20018;-75
2021/05/21 06:04:01;;;;;;;0.40;0.40;;;10.20;94.00;;;;;;4991940;28;20026;-75
2021/05/21 06:06:27;;;;;;;4.53;0.60;;;10.20;92.80;;;;;;4991563;28;20022;-76
2021/05/21 06:08:52;;;;;;;0.40;0.40;;;11.10;99.90;;;;;;4991920;28;20077;-75
2021/05/21 06:11:19;;;;;;;1.02;0.50;;;11.50;92.40;;;;;;4991840;28;20073;-74
2021/05/21 06:13:44;;;;;;;1.05;0.30;;;11.10;91.00;;;;;;4991730;28;20018;-74
2021/05/21 06:16:10;;;;;;;0.43;0.43;;;10.80;90.50;;;;;;4991948;28;20045;-75
2021/05/21 06:18:39;;;;;;;0.60;0.40;;;10.50;91.30;;;;;;4992080;28;20068;-74
2021/05/21 06:21:04;;;;;;;0.55;0.40;;;10.30;92.60;;;;;;4991776;28;20417;-75
2021/05/21 06:23:31;;;;;;;0.82;0.40;;;10.20;92.80;;;;;;4991931;28;20040;-74
2021/05/21 06:26:12;;;;;;;0.40;0.40;;;10.20;93.20;;;;;;4990576;28;20018;-73
2021/05/21 06:28:37;;;;;;;0.47;0.40;;;10.10;92.80;;;;;;4991797;28;20096;-74
2021/05/21 06:31:03;;;;;;;0.50;0.50;;;10.10;93.20;;;;;;4991639;28;20011;-71
2021/05/21 06:33:29;;;;;;;0.50;0.40;;;10.00;93.20;;;;;;4991567;28;20037;-69
2021/05/21 06:35:55;;;;;;;0.40;0.40;;;10.00;93.30;;;;;;4992340;28;20482;-72
2021/05/21 06:38:20;;;;;;;0.65;0.40;;;10.00;93.20;;;;;;5011380;28;20025;-71
2021/05/21 06:40:46;;;;;;;0.52;0.52;;;10.00;93.60;;;;;;5008290;28;20544;-72
2021/05/21 06:43:13;;;;;;;0.40;0.40;;;10.00;94.30;;;;;;5011268;28;20022;-72
2021/05/21 06:45:40;;;;;;;0.40;0.40;;;10.00;93.00;;;;;;5011184;28;20026;-71
2021/05/21 06:48:06;;;;;;;2.05;0.40;;;10.00;93.30;;;;;;5011043;28;20025;-71
2021/05/21 06:50:32;;;;;;;3.05;0.60;;;9.90;92.10;;;;;;5013345;28;20041;-73
2021/05/21 06:52:58;;;;;;;6.68;0.80;;;10.10;96.40;;;;;;5014837;28;20022;-72
2021/05/21 06:55:24;;;;;;;0.95;0.50;;;10.90;99.90;;;;;;5011949;28;20034;-71
2021/05/21 06:57:49;;;;;;;1.25;0.57;;;10.80;90.10;;;;;;5013553;28;20057;-71
2021/05/21 07:00:16;;;;;;;2.63;0.47;;;10.60;88.90;;;;;;4995863;28;20061;-71
2021/05/21 07:02:42;;;;;;;1.10;0.40;;;10.40;90.00;;;;;;5014701;28;20018;-71
2021/05/21 07:05:08;;;;;;;1.45;0.50;;;10.30;89.10;;;;;;5014712;28;20101;-71
2021/05/21 07:07:34;;;;;;;0.93;0.40;;;10.20;90.30;;;;;;5014514;28;20030;-71
2021/05/21 07:10:00;;;;;;;0.40;0.40;;;10.10;89.80;;;;;;5014444;28;20436;-71
2021/05/21 07:12:27;;;;;;;2.05;0.40;;;10.10;90.10;;;;;;5014625;28;20022;-71
2021/05/21 07:14:53;;;;;;;0.57;0.40;;;10.00;90.10;;;;;;5014174;28;20034;-71
2021/05/21 07:17:19;;;;;;;0.35;0.35;;;10.00;90.10;;;;;;5014018;28;20551;-71
2021/05/21 07:19:44;;;;;;;0.52;0.52;;;10.00;90.80;;;;;;4996650;28;20117;-70
2021/05/21 07:22:10;;;;;;;0.40;0.40;;;10.10;93.60;;;;;;5014090;28;20052;-70
2021/05/21 07:24:36;;;;;;;1.45;0.50;;;10.20;90.90;;;;;;4995217;28;20124;-70
2021/05/21 07:27:05;;;;;;;1.10;0.40;;;10.10;88.20;;;;;;5005669;28;20068;-70
2021/05/21 07:29:31;;;;;;;1.05;0.60;;;10.00;88.30;;;;;;5005874;28;20030;-70
2021/05/21 07:31:57;;;;;;;0.70;0.60;;;10.00;90.00;;;;;;5008451;28;20444;-71
2021/05/21 07:34:23;;;;;;;4.47;1.10;;;10.00;90.00;;;;;;5010974;28;20061;-72
2021/05/21 07:36:49;;;;;;;4.78;0.52;;;10.10;92.00;;;;;;5013828;28;20057;-71
2021/05/21 07:39:16;;;;;;;0.43;0.43;;;10.10;92.00;;;;;;5013405;28;20558;-72
2021/05/21 07:41:41;;;;;;;1.92;0.50;;;10.40;96.60;;;;;;5013702;28;20041;-70
2021/05/21 07:44:07;;;;;;;0.45;0.43;;;10.40;90.10;;;;;;5013619;28;20101;-72
2021/05/21 07:46:34;;;;;;;0.80;0.50;;;10.30;88.60;;;;;;5013740;28;20428;-69
2021/05/21 07:49:00;;;;;;;1.55;0.40;;;10.20;89.70;;;;;;5014457;28;20025;-88
2021/05/21 07:51:26;;;;;;;0.40;0.40;;;10.10;89.00;;;;;;5014670;28;20022;-81
2021/05/21 07:53:52;;;;;;;2.28;0.88;;;10.00;89.00;;;;;;5013466;28;20474;-79
2021/05/21 07:56:18;;;;;;;0.40;0.40;;;10.00;94.30;;;;;;5013411;28;20052;-79
2021/05/21 07:58:44;;;;;;;0.40;0.40;;;10.90;95.80;;;;;;5013415;28;20112;-78
2021/05/21 08:01:10;;;;;;;0.52;0.43;;;10.80;88.20;;;;;;5013281;28;20160;-78
2021/05/21 08:03:36;;;;;;;1.00;0.40;;;10.50;87.90;;;;;;5013129;28;20022;-78
2021/05/21 08:06:02;;;;;;;0.40;0.40;;;10.30;87.10;;;;;;5013654;28;20029;-79
2021/05/21 08:08:28;;;;;;;2.38;0.77;;;10.20;89.00;;;;;;5013211;28;20030;-78
2021/05/21 08:11:00;;;;;;;2.05;0.45;;;10.20;90.40;;;;;;5002431;28;20397;-78
2021/05/21 08:13:26;;;;;;;7.30;0.50;;;10.20;90.70;;;;;;5013258;28;20022;-78
2021/05/21 08:15:52;;;;;;;0.73;0.30;;;10.20;89.40;;;;;;5013385;28;20036;-78
2021/05/21 08:18:19;;;;;;;0.40;0.40;;;10.10;90.20;;;;;;5013211;28;20393;-78
2021/05/21 08:20:47;;;;;;;4.78;0.40;;;10.10;91.20;;;;;;5013345;28;20033;-78
2021/05/21 08:23:14;;;;;;;5.05;0.60;;;10.00;90.30;;;;;;5013391;28;20053;-78
2021/05/21 08:25:40;;;;;;;1.13;0.52;;;9.90;91.10;;;;;;5012906;28;20056;-78
2021/05/21 08:28:06;;;;;;;0.40;0.40;;;9.90;93.50;;;;;;5012963;28;20022;-78
2021/05/21 08:30:32;;;;;;;0.77;0.30;;;9.70;93.20;;;;;;5012871;28;20026;-78
2021/05/21 08:32:58;;;;;;;0.55;0.55;;;9.70;94.70;;;;;;5013008;28;20030;-78
2021/05/21 08:35:24;;;;;;;2.70;0.60;;;9.70;96.10;;;;;;5012651;28;20088;-78
2021/05/21 08:37:51;;;;;;;0.60;0.52;;;9.70;97.00;;;;;;5012472;28;20068;-78
2021/05/21 08:40:25;;;;;;;0.50;0.50;;;9.70;97.10;;;;;;5013067;28;20081;-78
2021/05/21 08:42:58;;;;;;;2.08;0.50;;;9.70;97.70;;;;;;4995201;28;20030;-79
2021/05/21 08:45:28;;;;;;;3.03;0.40;;;9.80;99.90;;;;;;5012897;28;20049;-79
2021/05/21 08:47:54;;;;;;;0.50;0.50;;;9.70;98.80;;;;;;5012422;28;20036;-79
2021/05/21 08:50:21;;;;;;;4.63;0.63;;;9.70;99.90;;;;;;5012394;28;20018;-81
2021/05/21 08:52:48;;;;;;;0.68;0.60;;;9.70;99.90;;;;;;5012564;28;20022;-79
2021/05/21 08:55:14;;;;;;;0.50;0.50;;;11.40;99.90;;;;;;5012620;28;20085;-77
2021/05/21 08:57:42;;;;;;;0.40;0.40;;;11.20;94.80;;;;;;5012359;28;20026;-75
2021/05/21 09:00:08;;;;;;;0.73;0.60;;;10.70;97.50;;;;;;5012360;28;20469;-84
2021/05/21 09:02:34;;;;;;;0.57;0.57;;;10.60;98.50;;;;;;5012767;28;20168;-74
2021/05/21 09:05:02;;;;;;;0.38;0.38;;;10.40;97.10;;;;;;5012266;28;20493;-73
2021/05/21 09:07:39;;;;;;;3.60;0.43;;;10.20;99.00;;;;;;5011781;28;20030;-68
2021/05/21 09:10:19;;;;;;;0.40;0.40;;;10.00;98.00;;;;;;5011421;28;20109;-67
2021/05/21 09:12:49;;;;;;;0.47;0.47;;;9.90;99.10;;;;;;5010841;28;20018;-68
2021/05/21 09:15:16;;;;;;;0.82;0.50;;;9.80;99.90;;;;;;5010855;28;20141;-68
2021/05/21 09:18:00;;;;;;;0.68;0.50;;;9.70;99.10;;;;;;4999687;28;20144;-68
2021/05/21 09:20:31;;;;;;;1.05;0.40;;;9.70;99.40;;;;;;5011790;28;20022;-75
2021/05/21 09:23:07;;;;;;;6.75;0.55;;;9.70;99.90;;;;;;5010548;28;20037;-72
2021/05/21 09:25:51;;;;;;;0.63;0.50;;;9.70;99.90;;;;;;5011965;28;20100;-72
2021/05/21 09:28:35;;;;;;;2.13;0.60;;;9.70;99.90;;;;;;5011828;28;20022;-72
2021/05/21 09:31:10;;;;;;;1.00;0.60;;;10.40;99.90;;;;;;4999564;28;20029;-72
2021/05/21 09:33:37;;;;;;;0.40;0.40;;;11.20;99.90;;;;;;5004891;28;20070;-72
2021/05/21 09:36:04;;;;;;;0.45;0.40;;;11.30;96.40;;;;;;5011055;28;20046;-72
2021/05/21 09:38:48;;;;;;;1.95;0.45;;;10.90;97.00;;;;;;5010838;28;20389;-72
2021/05/21 09:41:14;;;;;;;0.40;0.40;;;10.30;98.10;;;;;;5011745;28;20034;-72
2021/05/21 09:43:39;;;;;;;0.40;0.40;;;9.90;99.90;;;;;;5011782;28;20018;-72
2021/05/21 09:46:10;;;;;;;0.50;0.50;;;9.70;99.90;;;;;;4994218;28;20022;-72
2021/05/21 09:48:36;;;;;;;0.98;0.55;;;9.60;99.90;;;;;;5011459;28;20034;-72
2021/05/21 09:51:03;;;;;;;1.40;0.50;;;9.60;99.90;;;;;;5011733;28;20018;-72
2021/05/21 09:53:29;;;;;;;0.60;0.60;;;9.60;99.90;;;;;;5011353;28;20080;-72
2021/05/21 09:56:06;;;;;;;0.52;0.52;;;9.50;99.90;;;;;;5011829;28;20041;-72
2021/05/21 09:58:33;;;;;;;0.52;0.50;;;9.50;99.90;;;;;;5011502;28;20026;-72
2021/05/21 10:01:05;;;;;;;0.47;0.47;;;9.40;99.90;;;;;;5011458;28;20592;-72
2021/05/21 10:03:32;;;;;;;0.40;0.40;;;9.30;99.90;;;;;;5011395;28;20117;-72
2021/05/21 10:05:58;;;;;;;0.90;0.60;;;9.10;99.90;;;;;;5011767;28;20078;-71
2021/05/21 10:08:24;;;;;;;0.73;0.73;;;9.10;99.90;;;;;;5011471;28;20511;-72
2021/05/21 10:10:50;;;;;;;2.58;0.90;;;9.00;99.90;;;;;;5011414;28;20018;-71
2021/05/21 10:13:16;;;;;;;0.95;0.70;;;9.00;99.90;;;;;;5011535;28;20041;-71
2021/05/21 10:15:42;;;;;;;1.38;0.88;;;9.00;99.90;;;;;;5011492;28;20038;-71
2021/05/21 10:18:13;;;;;;;2.45;0.77;;;9.00;99.90;;;;;;5011166;28;20029;-71
2021/05/21 10:20:41;;;;;;;0.88;0.80;;;9.00;99.90;;;;;;5011139;28;20116;-71
2021/05/21 10:23:08;;;;;;;0.77;0.60;;;9.00;99.90;;;;;;5011512;28;20022;-71
2021/05/21 10:25:36;;;;;;;0.70;0.70;;;9.00;99.90;;;;;;5013868;28;20022;-71
2021/05/21 10:28:08;;;;;;;0.75;0.75;;;9.10;99.90;;;;;;5015455;28;20037;-71
2021/05/21 10:30:35;;;;;;;1.05;0.60;;;9.00;99.90;;;;;;5014873;28;20481;-72
2021/05/21 10:33:16;;;;;;;0.68;0.50;;;9.00;99.90;;;;;;5015051;28;20044;-71
2021/05/21 10:35:42;;;;;;;0.60;0.60;;;9.00;99.90;;;;;;5014564;28;20171;-71
2021/05/21 10:38:20;;;;;;;2.75;0.60;;;9.00;99.90;;;;;;5014905;28;20068;-71
2021/05/21 10:41:05;;;;;;;0.40;0.40;;;9.00;99.90;;;;;;5014941;28;20490;-71
2021/05/21 10:43:31;;;;;;;0.73;0.63;;;9.00;99.90;;;;;;5014493;28;20056;-72
2021/05/21 10:45:58;;;;;;;0.70;0.60;;;9.10;99.90;;;;;;5014958;28;20498;-71
2021/05/21 10:48:30;;;;;;;1.13;0.57;;;9.10;99.90;;;;;;4997308;28;20014;-71
2021/05/21 10:51:16;;;;;;;1.85;0.68;;;9.10;99.90;;;;;;5014821;28;20030;-71
2021/05/21 10:53:43;;;;;;;0.75;0.60;;;9.10;99.90;;;;;;5014578;28;20444;-71
2021/05/21 10:56:09;;;;;;;1.05;0.50;;;9.10;99.90;;;;;;5014957;28;20025;-71
2021/05/21 10:58:43;;;;;;;0.60;0.60;;;9.00;99.90;;;;;;5014564;28;20033;-71
2021/05/21 11:01:14;;;;;;;0.55;0.40;;;9.10;99.90;;;;;;5014695;28;20076;-71
2021/05/21 11:04:07;;;;;;;0.82;0.52;;;9.10;99.90;;;;;;5014261;28;20026;-71
2021/05/21 11:06:53;;;;;;;1.30;0.63;;;9.00;99.90;;;;;;5004503;28;20057;-71
2021/05/21 11:09:29;;;;;;;3.15;0.60;;;9.00;99.90;;;;;;5014480;28;20521;-71
2021/05/21 11:12:08;;;;;;;0.60;0.60;;;9.00;99.90;;;;;;5014213;28;20072;-71
2021/05/21 11:14:33;;;;;;;1.45;0.60;;;8.90;99.90;;;;;;5014338;28;20077;-71
2021/05/21 11:17:07;;;;;;;0.40;0.40;;;9.00;99.90;;;;;;5014251;28;20065;-72
2021/05/21 11:19:33;;;;;;;2.50;0.55;;;9.00;99.90;;;;;;5014399;28;20036;-71
2021/05/21 11:22:15;;;;;;;0.75;0.50;;;8.90;99.90;;;;;;4996452;28;20386;-72
2021/05/21 11:24:43;;;;;;;0.90;0.70;;;8.90;99.90;;;;;;5013881;28;20037;-71
2021/05/21 11:27:14;;;;;;;0.95;0.70;;;8.90;99.90;;;;;;5013947;28;20064;-72
2021/05/21 11:29:50;;;;;;;1.17;0.50;;;8.80;99.90;;;;;;5014428;28;20072;-72
2021/05/21 11:32:18;;;;;;;1.15;0.50;;;8.90;99.90;;;;;;5014250;28;20547;-72
2021/05/21 11:34:45;;;;;;;0.50;0.50;;;8.80;99.90;;;;;;5013687;28;20037;-73
2021/05/21 11:37:25;;;;;;;0.50;0.50;;;8.80;99.90;;;;;;5013304;28;20058;-73
2021/05/21 11:39:52;;;;;;;0.57;0.57;;;8.80;99.90;;;;;;5013805;28;20022;-72
2021/05/21 11:42:18;;;;;;;0.75;0.50;;;8.70;99.90;;;;;;5013820;28;20030;-72
2021/05/21 11:45:05;;;;;;;0.55;0.55;;;8.60;99.90;;;;;;4995858;28;20026;-72
2021/05/21 11:47:37;;;;;;;0.57;0.57;;;8.50;99.90;;;;;;5013587;28;20084;-72
2021/05/21 11:50:08;;;;;;;1.40;0.60;;;8.50;99.90;;;;;;5013759;28;20029;-72
2021/05/21 11:52:35;;;;;;;1.02;0.50;;;8.50;99.90;;;;;;5013521;28;20053;-73
2021/05/21 11:55:01;;;;;;;0.50;0.50;;;8.40;99.90;;;;;;5012974;28;20080;-72
2021/05/21 11:57:26;;;;;;;0.57;0.50;;;8.30;99.90;;;;;;5013187;28;20018;-72
2021/05/21 11:59:56;;;;;;;0.65;0.65;;;8.30;99.90;;;;;;5012984;28;20454;-73
2021/05/21 12:02:22;;;;;;;0.60;0.60;;;8.30;99.90;;;;;;5013530;28;20030;-73
2021/05/21 12:04:49;;;;;;;0.52;0.52;;;8.30;99.90;;;;;;5012961;28;20073;-73
2021/05/21 12:07:28;;;;;;;0.60;0.60;;;8.40;99.90;;;;;;5013352;28;20018;-72
2021/05/21 12:10:04;;;;;;;0.60;0.60;;;8.30;99.90;;;;;;5013042;28;20447;-73
2021/05/21 12:12:32;;;;;;;2.63;0.60;;;8.30;99.90;;;;;;5013248;28;20025;-73
2021/05/21 12:15:20;;;;;;;2.45;0.57;;;8.40;99.90;;;;;;5012926;28;20117;-73
2021/05/21 12:17:50;;;;;;;2.38;0.60;;;8.40;99.90;;;;;;5013087;28;20363;-73
2021/05/21 12:20:18;;;;;;;0.60;0.60;;;8.40;99.90;;;;;;5013113;28;20105;-73
2021/05/21 12:23:05;;;;;;;0.50;0.50;;;8.30;99.90;;;;;;5012880;28;20030;-73
2021/05/21 12:25:32;;;;;;;1.15;0.70;;;8.20;99.90;;;;;;5012963;28;20026;-73
2021/05/21 12:27:59;;;;;;;0.65;0.65;;;8.10;99.90;;;;;;5013254;28;20037;-73
2021/05/21 12:30:26;;;;;;;0.80;0.60;;;8.10;99.90;;;;;;5012925;28;20044;-73
2021/05/21 12:32:52;;;;;;;0.80;0.80;;;8.00;99.90;;;;;;5012666;28;20041;-73
2021/05/21 12:35:19;;;;;;;1.98;0.80;;;8.00;99.90;;;;;;5012905;28;20044;-73
2021/05/21 12:37:49;;;;;;;2.63;1.13;;;8.00;99.90;;;;;;5012254;28;20050;-73
2021/05/21 12:40:16;;;;;;;1.75;0.82;;;8.00;99.90;;;;;;5012562;28;20477;-73
2021/05/21 12:42:50;;;;;;;0.65;0.65;;;8.00;99.90;;;;;;5012777;28;20030;-73
2021/05/21 12:45:20;;;;;;;0.70;0.70;;;7.90;99.90;;;;;;5012810;28;20018;-73
2021/05/21 12:47:48;;;;;;;1.00;0.75;;;7.90;99.90;;;;;;5011542;28;20018;-73
2021/05/21 12:50:16;;;;;;;0.60;0.60;;;7.80;99.90;;;;;;5012551;28;20053;-73
2021/05/21 12:52:56;;;;;;;0.80;0.80;;;7.70;99.90;;;;;;5012672;28;20030;-73
2021/05/21 12:55:22;;;;;;;4.70;1.20;;;7.70;99.90;;;;;;5012618;28;20042;-73
2021/05/21 12:57:48;;;;;;;1.10;0.60;;;7.60;99.90;;;;;;5012495;28;20026;-73